Beulah, Minnesota
Current Conditions -  °F | °C
As of 8:56 PM on Friday 19 Dec 2014 (Local Time) from KXVG Reporting Station
Light Snow Light Snow  
Wind Chill: 18°   Ceiling: 1900
Heat Index: 25°   Visibility: 1.7mi
Dew Point: 25°   Wind: 6mph
Humidity: 100%   Direction: 140°SE
Pressure: 30.07"   Gusts: NA
Location:  46.8459°N, 93.8976°W
Report Text: KXVG 200256Z AUTO 14005KT 1 3/4SM -SN SCT007 OVC019 M04/M04 A3007 RMK AO2
Loading
Personal Weather Stations






























Interactive Weather Map New forecast layout! Learn more

10-Day Weather Forecast

Advertisements
Track Severe Weather on mobile